sensor_id;sensor_type;location;lat;lon;timestamp;P1;durP1;ratioP1;P2;durP2;ratioP2
60100;SDS011;45978;53.646;55.930;2023-02-10T00:00:19;10.82;;;7.30;;
60100;SDS011;45978;53.646;55.930;2023-02-10T00:01:21;12.07;;;8.07;;
60100;SDS011;45978;53.646;55.930;2023-02-10T00:02:28;10.32;;;7.22;;
60100;SDS011;45978;53.646;55.930;2023-02-10T00:03:30;11.73;;;7.28;;
60100;SDS011;45978;53.646;55.930;2023-02-10T00:04:31;12.02;;;7.50;;
60100;SDS011;45978;53.646;55.930;2023-02-10T00:05:33;10.93;;;7.22;;
60100;SDS011;45978;53.646;55.930;2023-02-10T00:06:34;10.38;;;6.95;;
60100;SDS011;45978;53.646;55.930;2023-02-10T00:07:36;10.75;;;7.15;;
60100;SDS011;45978;53.646;55.930;2023-02-10T00:08:38;9.68;;;6.57;;
60100;SDS011;45978;53.646;55.930;2023-02-10T00:09:40;8.30;;;6.63;;
60100;SDS011;45978;53.646;55.930;2023-02-10T00:10:41;10.88;;;6.38;;
60100;SDS011;45978;53.646;55.930;2023-02-10T00:11:43;8.70;;;6.90;;
60100;SDS011;45978;53.646;55.930;2023-02-10T00:12:56;11.30;;;6.40;;
60100;SDS011;45978;53.646;55.930;2023-02-10T00:13:58;9.32;;;5.80;;
60100;SDS011;45978;53.646;55.930;2023-02-10T00:14:59;8.80;;;6.35;;
60100;SDS011;45978;53.646;55.930;2023-02-10T00:16:01;9.27;;;6.55;;
60100;SDS011;45978;53.646;55.930;2023-02-10T00:17:04;7.70;;;5.25;;
60100;SDS011;45978;53.646;55.930;2023-02-10T00:18:05;7.90;;;5.93;;
60100;SDS011;45978;53.646;55.930;2023-02-10T00:19:07;8.80;;;6.32;;
60100;SDS011;45978;53.646;55.930;2023-02-10T00:20:09;7.05;;;5.78;;
60100;SDS011;45978;53.646;55.930;2023-02-10T00:21:15;8.73;;;6.35;;
60100;SDS011;45978;53.646;55.930;2023-02-10T00:22:17;7.95;;;5.63;;
60100;SDS011;45978;53.646;55.930;2023-02-10T00:23:18;8.27;;;5.97;;
60100;SDS011;45978;53.646;55.930;2023-02-10T00:24:20;9.23;;;5.95;;
60100;SDS011;45978;53.646;55.930;2023-02-10T00:25:21;7.82;;;5.65;;
60100;SDS011;45978;53.646;55.930;2023-02-10T00:26:23;7.30;;;5.72;;
60100;SDS011;45978;53.646;55.930;2023-02-10T00:27:25;10.13;;;6.07;;
60100;SDS011;45978;53.646;55.930;2023-02-10T00:28:27;13.73;;;5.80;;
60100;SDS011;45978;53.646;55.930;2023-02-10T00:29:28;8.85;;;6.28;;
60100;SDS011;45978;53.646;55.930;2023-02-10T00:30:32;8.05;;;5.85;;
60100;SDS011;45978;53.646;55.930;2023-02-10T00:31:33;9.45;;;6.15;;
60100;SDS011;45978;53.646;55.930;2023-02-10T00:32:34;10.63;;;5.95;;
60100;SDS011;45978;53.646;55.930;2023-02-10T00:33:37;9.65;;;6.47;;
60100;SDS011;45978;53.646;55.930;2023-02-10T00:34:39;10.82;;;6.43;;
60100;SDS011;45978;53.646;55.930;2023-02-10T00:35:40;7.63;;;6.18;;
60100;SDS011;45978;53.646;55.930;2023-02-10T00:36:41;8.73;;;6.72;;
60100;SDS011;45978;53.646;55.930;2023-02-10T00:37:43;8.77;;;5.95;;
60100;SDS011;45978;53.646;55.930;2023-02-10T00:38:45;9.70;;;6.15;;
60100;SDS011;45978;53.646;55.930;2023-02-10T00:39:46;8.63;;;5.38;;
60100;SDS011;45978;53.646;55.930;2023-02-10T00:40:47;8.68;;;6.00;;
60100;SDS011;45978;53.646;55.930;2023-02-10T00:41:49;10.93;;;6.47;;
60100;SDS011;45978;53.646;55.930;2023-02-10T00:42:50;10.40;;;6.68;;
60100;SDS011;45978;53.646;55.930;2023-02-10T00:43:51;10.05;;;6.60;;
60100;SDS011;45978;53.646;55.930;2023-02-10T00:44:53;8.88;;;6.43;;
60100;SDS011;45978;53.646;55.930;2023-02-10T00:45:55;12.68;;;5.97;;
60100;SDS011;45978;53.646;55.930;2023-02-10T00:46:57;9.35;;;6.57;;
60100;SDS011;45978;53.646;55.930;2023-02-10T00:47:58;9.18;;;6.43;;
60100;SDS011;45978;53.646;55.930;2023-02-10T00:49:01;10.20;;;6.50;;
60100;SDS011;45978;53.646;55.930;2023-02-10T00:50:02;9.20;;;6.57;;
60100;SDS011;45978;53.646;55.930;2023-02-10T00:51:05;7.78;;;6.40;;
60100;SDS011;45978;53.646;55.930;2023-02-10T00:52:08;9.88;;;6.20;;
60100;SDS011;45978;53.646;55.930;2023-02-10T00:53:09;9.05;;;6.40;;
60100;SDS011;45978;53.646;55.930;2023-02-10T00:54:13;7.50;;;5.63;;
60100;SDS011;45978;53.646;55.930;2023-02-10T00:55:14;8.60;;;6.43;;
60100;SDS011;45978;53.646;55.930;2023-02-10T00:56:15;8.98;;;6.30;;
60100;SDS011;45978;53.646;55.930;2023-02-10T00:57:18;9.20;;;5.82;;
60100;SDS011;45978;53.646;55.930;2023-02-10T00:58:20;10.55;;;6.82;;
60100;SDS011;45978;53.646;55.930;2023-02-10T00:59:22;7.88;;;5.63;;
60100;SDS011;45978;53.646;55.930;2023-02-10T01:00:23;8.70;;;5.95;;
60100;SDS011;45978;53.646;55.930;2023-02-10T01:01:24;9.30;;;5.75;;
60100;SDS011;45978;53.646;55.930;2023-02-10T01:02:26;8.18;;;6.45;;
60100;SDS011;45978;53.646;55.930;2023-02-10T01:03:28;9.00;;;6.25;;
60100;SDS011;45978;53.646;55.930;2023-02-10T01:04:29;7.43;;;6.40;;
60100;SDS011;45978;53.646;55.930;2023-02-10T01:05:31;10.10;;;6.70;;
60100;SDS011;45978;53.646;55.930;2023-02-10T01:06:33;7.75;;;6.30;;
60100;SDS011;45978;53.646;55.930;2023-02-10T01:07:34;10.45;;;6.80;;
60100;SDS011;45978;53.646;55.930;2023-02-10T01:08:37;10.38;;;6.22;;
60100;SDS011;45978;53.646;55.930;2023-02-10T01:09:38;7.43;;;6.35;;
60100;SDS011;45978;53.646;55.930;2023-02-10T01:10:40;8.65;;;6.40;;
60100;SDS011;45978;53.646;55.930;2023-02-10T01:11:41;8.68;;;6.45;;
60100;SDS011;45978;53.646;55.930;2023-02-10T01:12:43;13.52;;;7.10;;
60100;SDS011;45978;53.646;55.930;2023-02-10T01:13:45;6.75;;;6.03;;
60100;SDS011;45978;53.646;55.930;2023-02-10T01:14:48;10.60;;;6.90;;
60100;SDS011;45978;53.646;55.930;2023-02-10T01:15:51;7.53;;;5.93;;
60100;SDS011;45978;53.646;55.930;2023-02-10T01:16:52;12.55;;;6.40;;
60100;SDS011;45978;53.646;55.930;2023-02-10T01:17:54;10.30;;;7.10;;
60100;SDS011;45978;53.646;55.930;2023-02-10T01:18:57;9.60;;;7.00;;
60100;SDS011;45978;53.646;55.930;2023-02-10T01:20:01;7.43;;;6.07;;
60100;SDS011;45978;53.646;55.930;2023-02-10T01:21:11;8.55;;;6.22;;
60100;SDS011;45978;53.646;55.930;2023-02-10T01:22:18;10.32;;;6.68;;
60100;SDS011;45978;53.646;55.930;2023-02-10T01:23:20;10.02;;;5.95;;
60100;SDS011;45978;53.646;55.930;2023-02-10T01:24:22;9.35;;;6.22;;
60100;SDS011;45978;53.646;55.930;2023-02-10T01:25:24;8.27;;;6.20;;
60100;SDS011;45978;53.646;55.930;2023-02-10T01:26:25;7.57;;;6.05;;
60100;SDS011;45978;53.646;55.930;2023-02-10T01:27:26;7.70;;;6.20;;
60100;SDS011;45978;53.646;55.930;2023-02-10T01:28:28;10.23;;;6.40;;
60100;SDS011;45978;53.646;55.930;2023-02-10T01:29:30;7.72;;;6.20;;
60100;SDS011;45978;53.646;55.930;2023-02-10T01:30:31;10.57;;;6.70;;
60100;SDS011;45978;53.646;55.930;2023-02-10T01:31:33;7.57;;;6.40;;
60100;SDS011;45978;53.646;55.930;2023-02-10T01:32:34;9.98;;;6.53;;
60100;SDS011;45978;53.646;55.930;2023-02-10T01:33:37;9.75;;;6.55;;
60100;SDS011;45978;53.646;55.930;2023-02-10T01:34:39;6.97;;;5.95;;
60100;SDS011;45978;53.646;55.930;2023-02-10T01:35:40;8.35;;;6.20;;
60100;SDS011;45978;53.646;55.930;2023-02-10T01:36:41;8.93;;;5.65;;
60100;SDS011;45978;53.646;55.930;2023-02-10T01:37:45;8.77;;;5.72;;
60100;SDS011;45978;53.646;55.930;2023-02-10T01:38:46;10.20;;;6.28;;
60100;SDS011;45978;53.646;55.930;2023-02-10T01:39:48;10.15;;;6.43;;
60100;SDS011;45978;53.646;55.930;2023-02-10T01:40:49;11.07;;;6.72;;
60100;SDS011;45978;53.646;55.930;2023-02-10T01:41:50;6.90;;;5.82;;
60100;SDS011;45978;53.646;55.930;2023-02-10T01:42:54;7.88;;;5.88;;
60100;SDS011;45978;53.646;55.930;2023-02-10T01:43:57;9.45;;;5.60;;
60100;SDS011;45978;53.646;55.930;2023-02-10T01:46:19;6.55;;;5.88;;
60100;SDS011;45978;53.646;55.930;2023-02-10T01:47:21;10.43;;;6.45;;
60100;SDS011;45978;53.646;55.930;2023-02-10T01:48:25;12.20;;;6.50;;
60100;SDS011;45978;53.646;55.930;2023-02-10T01:49:30;6.57;;;5.70;;
60100;SDS011;45978;53.646;55.930;2023-02-10T01:50:37;7.82;;;5.55;;
60100;SDS011;45978;53.646;55.930;2023-02-10T01:51:52;8.52;;;5.95;;
60100;SDS011;45978;53.646;55.930;2023-02-10T01:52:54;6.55;;;5.80;;
60100;SDS011;45978;53.646;55.930;2023-02-10T01:53:57;8.15;;;6.13;;
60100;SDS011;45978;53.646;55.930;2023-02-10T01:55:03;8.57;;;6.22;;
60100;SDS011;45978;53.646;55.930;2023-02-10T01:56:07;39.83;;;18.63;;
60100;SDS011;45978;53.646;55.930;2023-02-10T01:57:09;9.35;;;6.45;;
60100;SDS011;45978;53.646;55.930;2023-02-10T01:58:13;6.78;;;5.82;;
60100;SDS011;45978;53.646;55.930;2023-02-10T01:59:16;6.75;;;6.13;;
60100;SDS011;45978;53.646;55.930;2023-02-10T02:00:21;7.32;;;5.72;;
60100;SDS011;45978;53.646;55.930;2023-02-10T02:01:24;7.18;;;5.78;;
60100;SDS011;45978;53.646;55.930;2023-02-10T02:02:27;6.50;;;5.65;;
60100;SDS011;45978;53.646;55.930;2023-02-10T02:03:32;8.02;;;5.93;;
60100;SDS011;45978;53.646;55.930;2023-02-10T02:04:44;8.70;;;6.03;;
60100;SDS011;45978;53.646;55.930;2023-02-10T02:05:49;9.15;;;5.90;;
60100;SDS011;45978;53.646;55.930;2023-02-10T02:06:55;7.72;;;6.38;;
60100;SDS011;45978;53.646;55.930;2023-02-10T02:07:57;8.25;;;6.35;;
60100;SDS011;45978;53.646;55.930;2023-02-10T02:09:09;8.13;;;6.15;;
60100;SDS011;45978;53.646;55.930;2023-02-10T02:10:14;10.23;;;6.93;;
60100;SDS011;45978;53.646;55.930;2023-02-10T02:13:01;7.78;;;5.35;;
60100;SDS011;45978;53.646;55.930;2023-02-10T02:16:43;8.82;;;6.05;;
60100;SDS011;45978;53.646;55.930;2023-02-10T02:32:22;10.25;;;6.18;;
60100;SDS011;45978;53.646;55.930;2023-02-10T02:33:47;7.60;;;5.55;;
60100;SDS011;45978;53.646;55.930;2023-02-10T02:34:55;8.10;;;5.93;;
60100;SDS011;45978;53.646;55.930;2023-02-10T02:36:06;6.57;;;5.35;;
60100;SDS011;45978;53.646;55.930;2023-02-10T02:38:23;8.27;;;6.70;;
60100;SDS011;45978;53.646;55.930;2023-02-10T02:39:26;10.07;;;6.65;;
60100;SDS011;45978;53.646;55.930;2023-02-10T02:40:28;8.15;;;6.25;;
60100;SDS011;45978;53.646;55.930;2023-02-10T02:41:30;9.93;;;6.78;;
60100;SDS011;45978;53.646;55.930;2023-02-10T02:42:34;8.40;;;5.72;;
60100;SDS011;45978;53.646;55.930;2023-02-10T02:43:37;8.57;;;6.45;;
60100;SDS011;45978;53.646;55.930;2023-02-10T02:44:40;6.78;;;6.07;;
60100;SDS011;45978;53.646;55.930;2023-02-10T02:45:53;7.35;;;6.20;;
60100;SDS011;45978;53.646;55.930;2023-02-10T02:47:13;6.18;;;5.10;;
60100;SDS011;45978;53.646;55.930;2023-02-10T02:51:21;10.55;;;4.97;;
60100;SDS011;45978;53.646;55.930;2023-02-10T02:52:59;7.88;;;5.45;;
60100;SDS011;45978;53.646;55.930;2023-02-10T02:54:33;7.70;;;4.25;;
60100;SDS011;45978;53.646;55.930;2023-02-10T02:55:49;6.00;;;4.65;;
60100;SDS011;45978;53.646;55.930;2023-02-10T02:58:32;8.20;;;5.10;;
60100;SDS011;45978;53.646;55.930;2023-02-10T02:59:42;7.82;;;6.30;;
60100;SDS011;45978;53.646;55.930;2023-02-10T03:00:51;10.73;;;6.75;;
60100;SDS011;45978;53.646;55.930;2023-02-10T03:01:59;13.68;;;6.72;;
60100;SDS011;45978;53.646;55.930;2023-02-10T03:03:03;9.60;;;7.35;;
60100;SDS011;45978;53.646;55.930;2023-02-10T03:04:05;10.75;;;7.68;;
60100;SDS011;45978;53.646;55.930;2023-02-10T03:05:09;13.40;;;6.75;;
60100;SDS011;45978;53.646;55.930;2023-02-10T03:06:11;9.32;;;7.03;;
60100;SDS011;45978;53.646;55.930;2023-02-10T03:07:12;11.82;;;8.10;;
60100;SDS011;45978;53.646;55.930;2023-02-10T03:08:17;11.55;;;7.90;;
60100;SDS011;45978;53.646;55.930;2023-02-10T03:09:18;9.35;;;7.55;;
60100;SDS011;45978;53.646;55.930;2023-02-10T03:10:20;10.10;;;5.35;;
60100;SDS011;45978;53.646;55.930;2023-02-10T03:11:22;9.63;;;6.20;;
60100;SDS011;45978;53.646;55.930;2023-02-10T03:12:23;14.48;;;7.30;;
60100;SDS011;45978;53.646;55.930;2023-02-10T03:13:24;14.32;;;8.65;;
60100;SDS011;45978;53.646;55.930;2023-02-10T03:14:26;9.98;;;7.22;;
60100;SDS011;45978;53.646;55.930;2023-02-10T03:15:27;12.65;;;8.30;;
60100;SDS011;45978;53.646;55.930;2023-02-10T03:16:31;11.98;;;8.20;;
60100;SDS011;45978;53.646;55.930;2023-02-10T03:17:34;12.00;;;7.75;;
60100;SDS011;45978;53.646;55.930;2023-02-10T03:18:36;9.90;;;7.75;;
60100;SDS011;45978;53.646;55.930;2023-02-10T03:19:37;12.07;;;7.43;;
60100;SDS011;45978;53.646;55.930;2023-02-10T03:20:39;11.02;;;6.00;;
60100;SDS011;45978;53.646;55.930;2023-02-10T03:21:41;12.38;;;7.68;;
60100;SDS011;45978;53.646;55.930;2023-02-10T03:22:43;14.88;;;8.38;;
60100;SDS011;45978;53.646;55.930;2023-02-10T03:23:44;13.18;;;8.48;;
60100;SDS011;45978;53.646;55.930;2023-02-10T03:24:47;9.00;;;5.60;;
60100;SDS011;45978;53.646;55.930;2023-02-10T03:25:49;12.77;;;8.02;;
60100;SDS011;45978;53.646;55.930;2023-02-10T03:27:02;13.05;;;7.90;;
60100;SDS011;45978;53.646;55.930;2023-02-10T03:28:06;12.18;;;8.13;;
60100;SDS011;45978;53.646;55.930;2023-02-10T03:29:07;14.07;;;8.98;;
60100;SDS011;45978;53.646;55.930;2023-02-10T03:30:08;12.40;;;7.47;;
60100;SDS011;45978;53.646;55.930;2023-02-10T03:31:10;15.55;;;9.25;;
60100;SDS011;45978;53.646;55.930;2023-02-10T03:32:13;13.77;;;8.43;;
60100;SDS011;45978;53.646;55.930;2023-02-10T03:33:19;11.18;;;7.85;;
60100;SDS011;45978;53.646;55.930;2023-02-10T03:34:20;14.25;;;8.50;;
60100;SDS011;45978;53.646;55.930;2023-02-10T03:35:23;11.85;;;7.95;;
60100;SDS011;45978;53.646;55.930;2023-02-10T03:36:24;10.25;;;7.03;;
60100;SDS011;45978;53.646;55.930;2023-02-10T03:37:26;13.18;;;8.50;;
60100;SDS011;45978;53.646;55.930;2023-02-10T03:38:27;16.25;;;8.77;;
60100;SDS011;45978;53.646;55.930;2023-02-10T03:39:30;13.18;;;7.82;;
60100;SDS011;45978;53.646;55.930;2023-02-10T03:40:32;10.95;;;7.22;;
60100;SDS011;45978;53.646;55.930;2023-02-10T03:41:34;13.05;;;8.48;;
60100;SDS011;45978;53.646;55.930;2023-02-10T03:42:35;9.98;;;7.10;;
60100;SDS011;45978;53.646;55.930;2023-02-10T03:43:37;14.80;;;7.07;;
60100;SDS011;45978;53.646;55.930;2023-02-10T03:44:39;12.88;;;7.53;;
60100;SDS011;45978;53.646;55.930;2023-02-10T03:45:40;16.85;;;8.77;;
60100;SDS011;45978;53.646;55.930;2023-02-10T03:46:42;10.25;;;7.22;;
60100;SDS011;45978;53.646;55.930;2023-02-10T03:47:44;12.18;;;6.95;;
60100;SDS011;45978;53.646;55.930;2023-02-10T03:48:46;12.30;;;7.45;;
60100;SDS011;45978;53.646;55.930;2023-02-10T03:49:48;14.55;;;8.07;;
60100;SDS011;45978;53.646;55.930;2023-02-10T03:50:49;16.08;;;8.50;;
60100;SDS011;45978;53.646;55.930;2023-02-10T03:51:51;17.77;;;8.15;;
60100;SDS011;45978;53.646;55.930;2023-02-10T03:52:52;13.52;;;8.10;;
60100;SDS011;45978;53.646;55.930;2023-02-10T03:53:53;11.10;;;7.80;;
60100;SDS011;45978;53.646;55.930;2023-02-10T03:54:55;10.45;;;8.30;;
60100;SDS011;45978;53.646;55.930;2023-02-10T03:55:56;12.55;;;8.23;;
60100;SDS011;45978;53.646;55.930;2023-02-10T03:56:59;11.05;;;8.15;;
60100;SDS011;45978;53.646;55.930;2023-02-10T03:58:01;14.38;;;8.57;;
60100;SDS011;45978;53.646;55.930;2023-02-10T03:59:04;11.77;;;7.78;;
60100;SDS011;45978;53.646;55.930;2023-02-10T04:00:06;15.13;;;7.35;;
60100;SDS011;45978;53.646;55.930;2023-02-10T04:01:14;13.48;;;6.70;;
60100;SDS011;45978;53.646;55.930;2023-02-10T04:02:17;10.60;;;7.45;;
60100;SDS011;45978;53.646;55.930;2023-02-10T04:03:18;12.75;;;8.15;;
60100;SDS011;45978;53.646;55.930;2023-02-10T04:04:20;14.15;;;9.02;;
60100;SDS011;45978;53.646;55.930;2023-02-10T04:05:21;13.00;;;8.57;;
60100;SDS011;45978;53.646;55.930;2023-02-10T04:06:25;16.00;;;8.70;;
60100;SDS011;45978;53.646;55.930;2023-02-10T04:07:28;13.50;;;8.63;;
60100;SDS011;45978;53.646;55.930;2023-02-10T04:08:29;11.90;;;7.88;;
60100;SDS011;45978;53.646;55.930;2023-02-10T04:09:32;14.27;;;7.68;;
60100;SDS011;45978;53.646;55.930;2023-02-10T04:10:34;13.55;;;8.23;;
60100;SDS011;45978;53.646;55.930;2023-02-10T04:11:35;14.07;;;9.38;;
60100;SDS011;45978;53.646;55.930;2023-02-10T04:12:37;14.65;;;8.38;;
60100;SDS011;45978;53.646;55.930;2023-02-10T04:13:41;18.13;;;9.38;;
60100;SDS011;45978;53.646;55.930;2023-02-10T04:14:45;13.32;;;8.68;;
60100;SDS011;45978;53.646;55.930;2023-02-10T04:15:46;14.82;;;9.60;;
60100;SDS011;45978;53.646;55.930;2023-02-10T04:16:48;12.82;;;8.02;;
60100;SDS011;45978;53.646;55.930;2023-02-10T04:17:50;14.10;;;9.15;;
60100;SDS011;45978;53.646;55.930;2023-02-10T04:18:52;13.13;;;8.82;;
60100;SDS011;45978;53.646;55.930;2023-02-10T04:19:53;16.30;;;9.15;;
60100;SDS011;45978;53.646;55.930;2023-02-10T04:20:55;15.10;;;9.55;;
60100;SDS011;45978;53.646;55.930;2023-02-10T04:21:58;14.85;;;8.77;;
60100;SDS011;45978;53.646;55.930;2023-02-10T04:22:59;16.10;;;9.18;;
60100;SDS011;45978;53.646;55.930;2023-02-10T04:24:02;14.68;;;9.18;;
60100;SDS011;45978;53.646;55.930;2023-02-10T04:25:03;14.30;;;10.10;;
60100;SDS011;45978;53.646;55.930;2023-02-10T04:26:05;12.55;;;8.38;;
60100;SDS011;45978;53.646;55.930;2023-02-10T04:27:07;14.73;;;8.75;;
60100;SDS011;45978;53.646;55.930;2023-02-10T04:28:09;12.90;;;9.05;;
60100;SDS011;45978;53.646;55.930;2023-02-10T04:29:10;13.10;;;8.75;;
60100;SDS011;45978;53.646;55.930;2023-02-10T04:30:12;10.38;;;6.57;;
60100;SDS011;45978;53.646;55.930;2023-02-10T04:31:13;9.95;;;5.50;;
60100;SDS011;45978;53.646;55.930;2023-02-10T04:32:14;15.18;;;8.10;;
60100;SDS011;45978;53.646;55.930;2023-02-10T04:33:16;16.13;;;9.48;;
60100;SDS011;45978;53.646;55.930;2023-02-10T04:34:18;13.35;;;7.90;;
60100;SDS011;45978;53.646;55.930;2023-02-10T04:35:21;13.10;;;8.80;;
60100;SDS011;45978;53.646;55.930;2023-02-10T04:36:22;18.00;;;8.88;;
60100;SDS011;45978;53.646;55.930;2023-02-10T04:37:23;12.43;;;7.57;;
60100;SDS011;45978;53.646;55.930;2023-02-10T04:38:24;9.75;;;7.03;;
60100;SDS011;45978;53.646;55.930;2023-02-10T04:39:26;12.80;;;8.20;;
60100;SDS011;45978;53.646;55.930;2023-02-10T04:40:31;16.23;;;10.18;;
60100;SDS011;45978;53.646;55.930;2023-02-10T04:41:32;16.10;;;8.75;;
60100;SDS011;45978;53.646;55.930;2023-02-10T04:42:35;12.02;;;7.97;;
60100;SDS011;45978;53.646;55.930;2023-02-10T04:43:36;13.48;;;8.38;;
60100;SDS011;45978;53.646;55.930;2023-02-10T04:44:38;10.60;;;8.27;;
60100;SDS011;45978;53.646;55.930;2023-02-10T04:45:41;16.25;;;9.85;;
60100;SDS011;45978;53.646;55.930;2023-02-10T04:46:44;12.55;;;7.75;;
60100;SDS011;45978;53.646;55.930;2023-02-10T04:47:45;12.73;;;8.52;;
60100;SDS011;45978;53.646;55.930;2023-02-10T04:48:47;13.70;;;8.88;;
60100;SDS011;45978;53.646;55.930;2023-02-10T04:49:50;16.08;;;10.40;;
60100;SDS011;45978;53.646;55.930;2023-02-10T04:50:52;11.85;;;7.85;;
60100;SDS011;45978;53.646;55.930;2023-02-10T04:51:53;15.15;;;8.55;;
60100;SDS011;45978;53.646;55.930;2023-02-10T04:52:59;14.93;;;8.75;;
60100;SDS011;45978;53.646;55.930;2023-02-10T04:54:00;16.40;;;8.63;;
60100;SDS011;45978;53.646;55.930;2023-02-10T04:55:01;14.43;;;8.38;;
60100;SDS011;45978;53.646;55.930;2023-02-10T04:56:06;13.05;;;7.53;;
60100;SDS011;45978;53.646;55.930;2023-02-10T04:57:08;15.13;;;8.15;;
60100;SDS011;45978;53.646;55.930;2023-02-10T04:58:09;9.13;;;5.72;;
60100;SDS011;45978;53.646;55.930;2023-02-10T04:59:11;10.25;;;6.55;;
60100;SDS011;45978;53.646;55.930;2023-02-10T05:00:14;13.02;;;8.15;;
60100;SDS011;45978;53.646;55.930;2023-02-10T05:01:20;13.73;;;9.15;;
60100;SDS011;45978;53.646;55.930;2023-02-10T05:02:26;18.70;;;9.55;;
60100;SDS011;45978;53.646;55.930;2023-02-10T05:03:30;15.77;;;8.02;;
60100;SDS011;45978;53.646;55.930;2023-02-10T05:04:52;13.80;;;8.68;;
60100;SDS011;45978;53.646;55.930;2023-02-10T05:05:53;18.88;;;9.45;;
60100;SDS011;45978;53.646;55.930;2023-02-10T05:06:54;15.02;;;9.35;;
60100;SDS011;45978;53.646;55.930;2023-02-10T05:07:58;14.82;;;9.38;;
60100;SDS011;45978;53.646;55.930;2023-02-10T05:09:00;14.88;;;8.57;;
60100;SDS011;45978;53.646;55.930;2023-02-10T05:10:01;12.40;;;8.75;;
60100;SDS011;45978;53.646;55.930;2023-02-10T05:11:03;15.48;;;10.20;;
60100;SDS011;45978;53.646;55.930;2023-02-10T05:12:04;15.57;;;9.00;;
60100;SDS011;45978;53.646;55.930;2023-02-10T05:13:08;17.52;;;9.50;;
60100;SDS011;45978;53.646;55.930;2023-02-10T05:14:09;16.35;;;9.77;;
60100;SDS011;45978;53.646;55.930;2023-02-10T05:15:10;12.93;;;8.68;;
60100;SDS011;45978;53.646;55.930;2023-02-10T05:16:16;13.88;;;9.10;;
60100;SDS011;45978;53.646;55.930;2023-02-10T05:17:18;16.33;;;9.43;;
60100;SDS011;45978;53.646;55.930;2023-02-10T05:18:19;10.63;;;7.00;;
60100;SDS011;45978;53.646;55.930;2023-02-10T05:19:20;13.77;;;8.77;;
60100;SDS011;45978;53.646;55.930;2023-02-10T05:20:22;9.82;;;7.10;;
60100;SDS011;45978;53.646;55.930;2023-02-10T05:21:24;15.98;;;9.13;;
60100;SDS011;45978;53.646;55.930;2023-02-10T05:22:25;14.40;;;8.43;;
60100;SDS011;45978;53.646;55.930;2023-02-10T05:23:30;13.63;;;8.73;;
60100;SDS011;45978;53.646;55.930;2023-02-10T05:24:31;11.95;;;8.15;;
60100;SDS011;45978;53.646;55.930;2023-02-10T05:25:33;19.60;;;9.95;;
60100;SDS011;45978;53.646;55.930;2023-02-10T05:26:34;14.43;;;8.40;;
60100;SDS011;45978;53.646;55.930;2023-02-10T05:27:36;15.73;;;9.73;;
60100;SDS011;45978;53.646;55.930;2023-02-10T05:28:40;13.45;;;8.85;;
60100;SDS011;45978;53.646;55.930;2023-02-10T05:29:41;14.57;;;9.20;;
60100;SDS011;45978;53.646;55.930;2023-02-10T05:30:43;16.40;;;9.00;;
60100;SDS011;45978;53.646;55.930;2023-02-10T05:31:44;16.98;;;9.93;;
60100;SDS011;45978;53.646;55.930;2023-02-10T05:32:45;19.35;;;9.30;;
60100;SDS011;45978;53.646;55.930;2023-02-10T05:33:47;15.00;;;9.50;;
60100;SDS011;45978;53.646;55.930;2023-02-10T05:34:48;13.43;;;8.52;;
60100;SDS011;45978;53.646;55.930;2023-02-10T05:35:49;16.90;;;9.88;;
60100;SDS011;45978;53.646;55.930;2023-02-10T05:36:51;17.10;;;9.35;;
60100;SDS011;45978;53.646;55.930;2023-02-10T05:37:52;16.30;;;9.00;;
60100;SDS011;45978;53.646;55.930;2023-02-10T05:38:53;14.52;;;8.40;;
60100;SDS011;45978;53.646;55.930;2023-02-10T05:40:13;11.35;;;7.78;;
60100;SDS011;45978;53.646;55.930;2023-02-10T05:41:14;20.85;;;9.27;;
60100;SDS011;45978;53.646;55.930;2023-02-10T05:42:16;13.52;;;8.68;;
60100;SDS011;45978;53.646;55.930;2023-02-10T05:43:17;14.88;;;9.30;;
60100;SDS011;45978;53.646;55.930;2023-02-10T05:44:18;16.38;;;9.70;;
60100;SDS011;45978;53.646;55.930;2023-02-10T05:45:20;15.63;;;9.43;;
60100;SDS011;45978;53.646;55.930;2023-02-10T05:46:26;14.82;;;9.20;;
60100;SDS011;45978;53.646;55.930;2023-02-10T05:47:29;16.83;;;9.38;;
60100;SDS011;45978;53.646;55.930;2023-02-10T05:48:30;10.93;;;8.00;;
60100;SDS011;45978;53.646;55.930;2023-02-10T05:49:37;12.52;;;8.15;;
60100;SDS011;45978;53.646;55.930;2023-02-10T05:50:39;16.15;;;8.18;;
60100;SDS011;45978;53.646;55.930;2023-02-10T05:51:48;11.93;;;8.52;;
60100;SDS011;45978;53.646;55.930;2023-02-10T05:52:56;12.68;;;8.52;;
60100;SDS011;45978;53.646;55.930;2023-02-10T05:54:00;11.77;;;7.88;;
60100;SDS011;45978;53.646;55.930;2023-02-10T05:55:05;12.95;;;8.25;;
60100;SDS011;45978;53.646;55.930;2023-02-10T05:56:07;12.70;;;8.55;;
60100;SDS011;45978;53.646;55.930;2023-02-10T05:57:09;11.23;;;7.88;;
60100;SDS011;45978;53.646;55.930;2023-02-10T05:58:10;11.32;;;7.90;;
60100;SDS011;45978;53.646;55.930;2023-02-10T05:59:16;12.77;;;8.02;;
60100;SDS011;45978;53.646;55.930;2023-02-10T06:00:18;14.15;;;8.57;;
60100;SDS011;45978;53.646;55.930;2023-02-10T06:01:20;9.65;;;8.00;;
60100;SDS011;45978;53.646;55.930;2023-02-10T06:02:21;11.15;;;8.05;;
60100;SDS011;45978;53.646;55.930;2023-02-10T06:03:23;11.75;;;7.65;;
60100;SDS011;45978;53.646;55.930;2023-02-10T06:04:24;11.80;;;7.88;;
60100;SDS011;45978;53.646;55.930;2023-02-10T06:05:25;15.05;;;9.13;;
60100;SDS011;45978;53.646;55.930;2023-02-10T06:06:27;14.70;;;7.55;;
60100;SDS011;45978;53.646;55.930;2023-02-10T06:07:28;14.73;;;7.65;;
60100;SDS011;45978;53.646;55.930;2023-02-10T06:08:29;10.57;;;7.57;;
60100;SDS011;45978;53.646;55.930;2023-02-10T06:09:32;12.55;;;7.82;;
60100;SDS011;45978;53.646;55.930;2023-02-10T06:10:34;12.68;;;8.32;;
60100;SDS011;45978;53.646;55.930;2023-02-10T06:11:35;13.10;;;9.15;;
60100;SDS011;45978;53.646;55.930;2023-02-10T06:12:37;12.43;;;7.35;;
60100;SDS011;45978;53.646;55.930;2023-02-10T06:13:39;13.23;;;8.60;;
60100;SDS011;45978;53.646;55.930;2023-02-10T06:14:42;10.70;;;7.53;;
60100;SDS011;45978;53.646;55.930;2023-02-10T06:15:43;16.08;;;8.32;;
60100;SDS011;45978;53.646;55.930;2023-02-10T06:16:44;12.55;;;8.32;;
60100;SDS011;45978;53.646;55.930;2023-02-10T06:17:46;11.13;;;7.57;;
60100;SDS011;45978;53.646;55.930;2023-02-10T06:18:47;13.23;;;8.52;;
60100;SDS011;45978;53.646;55.930;2023-02-10T06:19:48;11.98;;;8.80;;
60100;SDS011;45978;53.646;55.930;2023-02-10T06:20:50;11.50;;;9.18;;
60100;SDS011;45978;53.646;55.930;2023-02-10T06:21:51;13.45;;;7.82;;
60100;SDS011;45978;53.646;55.930;2023-02-10T06:22:53;12.88;;;9.05;;
60100;SDS011;45978;53.646;55.930;2023-02-10T06:23:54;11.32;;;7.55;;
60100;SDS011;45978;53.646;55.930;2023-02-10T06:24:57;12.82;;;9.10;;
60100;SDS011;45978;53.646;55.930;2023-02-10T06:25:59;10.68;;;7.93;;
60100;SDS011;45978;53.646;55.930;2023-02-10T06:27:00;10.40;;;7.05;;
60100;SDS011;45978;53.646;55.930;2023-02-10T06:28:04;13.52;;;9.07;;
60100;SDS011;45978;53.646;55.930;2023-02-10T06:29:06;12.85;;;9.13;;
60100;SDS011;45978;53.646;55.930;2023-02-10T06:30:11;12.15;;;8.95;;
60100;SDS011;45978;53.646;55.930;2023-02-10T06:31:14;14.57;;;9.40;;
60100;SDS011;45978;53.646;55.930;2023-02-10T06:32:15;12.65;;;8.40;;
60100;SDS011;45978;53.646;55.930;2023-02-10T06:33:17;13.00;;;8.70;;
60100;SDS011;45978;53.646;55.930;2023-02-10T06:34:19;14.25;;;9.02;;
60100;SDS011;45978;53.646;55.930;2023-02-10T06:35:27;13.50;;;9.65;;
60100;SDS011;45978;53.646;55.930;2023-02-10T06:36:28;15.07;;;9.77;;